createdAt,value
2018-04-22T00:01:03.346Z,16.50
2018-04-22T00:03:30.810Z,16.50
2018-04-22T00:05:58.280Z,16.50
2018-04-22T00:08:25.713Z,16.40
2018-04-22T00:10:53.194Z,16.40
2018-04-22T00:13:20.633Z,16.30
2018-04-22T00:15:48.137Z,16.30
2018-04-22T00:18:15.609Z,16.30
2018-04-22T00:20:43.073Z,16.30
2018-04-22T00:23:10.619Z,16.20
2018-04-22T00:25:38.072Z,16.10
2018-04-22T00:28:05.523Z,16.10
2018-04-22T00:30:32.987Z,16.10
2018-04-22T00:33:00.538Z,16.10
2018-04-22T00:35:28.069Z,16.10
2018-04-22T00:37:56.283Z,16.10
2018-04-22T00:40:23.734Z,16.10
2018-04-22T00:42:51.238Z,16.10
2018-04-22T00:45:18.789Z,16.00
2018-04-22T00:47:46.234Z,16.00
2018-04-22T00:50:13.702Z,16.00
2018-04-22T00:52:41.180Z,15.90
2018-04-22T00:55:08.653Z,15.90
2018-04-22T00:57:36.108Z,15.90
2018-04-22T01:00:03.566Z,15.90
2018-04-22T01:02:31.009Z,15.80
2018-04-22T01:04:58.609Z,15.90
2018-04-22T01:07:26.076Z,15.80
2018-04-22T01:09:53.541Z,15.80
2018-04-22T01:12:20.995Z,15.70
2018-04-22T01:14:48.570Z,15.70
2018-04-22T01:17:16.014Z,15.70
2018-04-22T01:19:43.489Z,15.70
2018-04-22T01:22:10.930Z,15.60
2018-04-22T01:24:38.388Z,15.60
2018-04-22T01:27:05.844Z,15.60
2018-04-22T01:29:33.336Z,15.60
2018-04-22T01:32:00.789Z,15.50
2018-04-22T01:34:28.237Z,15.50
2018-04-22T01:36:55.693Z,15.50
2018-04-22T01:39:23.186Z,15.50
2018-04-22T01:41:50.625Z,15.50
2018-04-22T01:44:18.106Z,15.40
2018-04-22T01:46:45.568Z,15.30
2018-04-22T01:49:13.059Z,15.30
2018-04-22T01:51:42.006Z,15.10
2018-04-22T01:54:09.510Z,15.10
2018-04-22T01:56:36.979Z,15.10
2018-04-22T01:59:04.419Z,15.10
2018-04-22T02:01:31.897Z,15.10
2018-04-22T02:03:59.369Z,15.00
2018-04-22T02:06:26.833Z,15.00
2018-04-22T02:08:54.277Z,15.00
2018-04-22T02:11:21.745Z,14.90
2018-04-22T02:13:49.191Z,15.00
2018-04-22T02:16:16.649Z,15.00
2018-04-22T02:18:44.110Z,15.00
2018-04-22T02:21:11.557Z,14.90
2018-04-22T02:23:39.017Z,14.80
2018-04-22T02:26:06.471Z,14.80
2018-04-22T02:28:33.941Z,14.80
2018-04-22T02:31:01.422Z,14.80
2018-04-22T02:33:28.888Z,14.80
2018-04-22T02:35:56.330Z,14.80
2018-04-22T02:38:23.790Z,14.70
2018-04-22T02:40:51.232Z,14.70
2018-04-22T02:43:19.463Z,14.70
2018-04-22T02:45:46.933Z,14.70
2018-04-22T02:48:14.408Z,14.60
2018-04-22T02:50:43.486Z,14.60
2018-04-22T02:53:10.929Z,14.60
2018-04-22T02:55:38.389Z,14.50
2018-04-22T02:58:06.125Z,14.50
2018-04-22T03:00:34.456Z,14.60
2018-04-22T03:03:01.909Z,14.50
2018-04-22T03:05:30.161Z,14.50
2018-04-22T03:07:57.633Z,14.40
2018-04-22T03:10:25.100Z,14.40
2018-04-22T03:12:52.558Z,14.40
2018-04-22T03:15:20.006Z,14.50
2018-04-22T03:17:47.469Z,14.50
2018-04-22T03:20:14.909Z,14.40
2018-04-22T03:22:43.148Z,14.40
2018-04-22T03:25:10.613Z,14.30
2018-04-22T03:27:38.077Z,14.50
2018-04-22T03:30:05.533Z,14.40
2018-04-22T03:32:33.001Z,14.30
2018-04-22T03:35:00.465Z,14.30
2018-04-22T03:37:27.921Z,14.20
2018-04-22T03:39:55.378Z,14.30
2018-04-22T03:42:22.827Z,14.20
2018-04-22T03:44:50.303Z,14.20
2018-04-22T03:47:17.754Z,14.10
2018-04-22T03:49:45.240Z,14.00
2018-04-22T03:52:12.693Z,13.90
2018-04-22T03:54:40.162Z,13.90
2018-04-22T03:57:07.622Z,13.90
2018-04-22T03:59:35.103Z,13.90
2018-04-22T04:02:02.548Z,14.00
2018-04-22T04:04:29.994Z,13.80
2018-04-22T04:06:57.466Z,13.80
2018-04-22T04:09:24.938Z,13.70
2018-04-22T04:11:52.398Z,13.70
2018-04-22T04:14:19.860Z,13.80
2018-04-22T04:16:47.313Z,13.70
2018-04-22T04:19:26.657Z,13.70
2018-04-22T04:22:06.193Z,13.70
2018-04-22T04:25:08.286Z,13.70
2018-04-22T04:27:49.906Z,13.40
2018-04-22T04:30:17.380Z,13.40
2018-04-22T04:32:44.859Z,13.60
2018-04-22T04:35:12.315Z,13.50
2018-04-22T04:37:39.779Z,13.40
2018-04-22T04:40:07.245Z,13.50
2018-04-22T04:42:34.721Z,13.60
2018-04-22T04:45:02.188Z,13.50
2018-04-22T04:47:29.619Z,13.50
2018-04-22T04:49:57.090Z,13.40
2018-04-22T04:52:24.553Z,13.40
2018-04-22T04:54:52.000Z,13.40
2018-04-22T04:57:19.463Z,13.50
2018-04-22T04:59:46.910Z,13.50
2018-04-22T05:02:14.354Z,13.60
2018-04-22T05:04:42.692Z,13.50
2018-04-22T05:07:10.151Z,13.50
2018-04-22T05:09:37.606Z,13.60
2018-04-22T05:12:05.073Z,13.70
2018-04-22T05:14:32.637Z,13.80
2018-04-22T05:17:00.202Z,13.90
2018-04-22T05:19:27.645Z,13.80
2018-04-22T05:21:55.106Z,13.90
2018-04-22T05:24:22.574Z,13.80
2018-04-22T05:26:50.030Z,13.90
2018-04-22T05:29:17.490Z,13.90
2018-04-22T05:31:44.925Z,14.00
2018-04-22T05:34:12.441Z,14.10
2018-04-22T05:36:39.900Z,14.10
2018-04-22T05:39:07.374Z,14.20
2018-04-22T05:41:34.846Z,14.20
2018-04-22T05:44:02.317Z,14.30
2018-04-22T05:46:29.767Z,14.40
2018-04-22T05:48:57.525Z,14.50
2018-04-22T05:51:24.993Z,14.60
2018-04-22T05:53:52.446Z,14.70
2018-04-22T05:56:19.915Z,14.80
2018-04-22T05:58:47.377Z,14.90
2018-04-22T06:01:14.842Z,15.10
2018-04-22T06:03:42.301Z,15.20
2018-04-22T06:06:09.869Z,15.30
2018-04-22T06:08:37.360Z,15.40
2018-04-22T06:11:04.788Z,15.40
2018-04-22T06:13:32.250Z,15.50
2018-04-22T06:15:59.730Z,15.60
2018-04-22T06:18:27.185Z,15.70
2018-04-22T06:20:54.665Z,15.80
2018-04-22T06:23:22.206Z,16.00
2018-04-22T06:25:49.667Z,16.10
2018-04-22T06:28:17.176Z,16.20
2018-04-22T06:30:44.594Z,16.30
2018-04-22T06:33:12.062Z,16.50
2018-04-22T06:35:39.624Z,16.70
2018-04-22T06:38:07.081Z,16.80
2018-04-22T06:40:34.529Z,16.90
2018-04-22T06:43:01.999Z,17.10
2018-04-22T06:45:29.441Z,17.20
2018-04-22T06:47:56.931Z,17.30
2018-04-22T06:50:24.369Z,17.40
2018-04-22T06:52:51.831Z,17.50
2018-04-22T06:55:19.290Z,17.60
2018-04-22T06:57:46.760Z,17.70
2018-04-22T07:00:14.202Z,17.80
2018-04-22T07:02:41.757Z,17.90
2018-04-22T07:05:09.961Z,18.20
2018-04-22T07:07:37.526Z,18.20
2018-04-22T07:10:04.992Z,18.40
2018-04-22T07:12:32.446Z,18.50
2018-04-22T07:14:59.938Z,18.70
2018-04-22T07:17:27.506Z,18.90
2018-04-22T07:19:54.954Z,19.20
2018-04-22T07:22:22.538Z,19.30
2018-04-22T07:24:50.110Z,19.50
2018-04-22T07:27:17.582Z,19.50
2018-04-22T07:29:46.533Z,19.60
2018-04-22T07:32:14.046Z,19.60
2018-04-22T07:34:41.454Z,19.80
2018-04-22T07:37:08.946Z,19.80
2018-04-22T07:39:36.403Z,19.90
2018-04-22T07:42:03.872Z,20.10
2018-04-22T07:44:31.308Z,20.30
2018-04-22T07:46:58.797Z,20.40
2018-04-22T07:49:26.262Z,20.50
2018-04-22T07:51:53.717Z,20.70
2018-04-22T07:54:21.284Z,20.80
2018-04-22T07:56:48.754Z,20.90
2018-04-22T07:59:16.309Z,20.90
2018-04-22T08:01:43.777Z,20.90
2018-04-22T08:04:11.234Z,21.10
2018-04-22T08:06:38.697Z,21.20
2018-04-22T08:09:06.149Z,21.30
2018-04-22T08:11:33.609Z,21.40
2018-04-22T08:14:01.090Z,21.40
2018-04-22T08:16:28.756Z,21.50
2018-04-22T08:18:56.230Z,21.70
2018-04-22T08:21:23.672Z,21.70
2018-04-22T08:23:51.216Z,21.90
2018-04-22T08:26:18.713Z,22.00
2018-04-22T08:28:46.186Z,22.10
2018-04-22T08:31:13.627Z,22.10
2018-04-22T08:33:41.270Z,22.20
2018-04-22T08:36:08.766Z,22.40
2018-04-22T08:38:36.244Z,22.50
2018-04-22T08:41:03.698Z,22.70
2018-04-22T08:43:31.133Z,23.00
2018-04-22T08:45:58.624Z,23.20
2018-04-22T08:48:26.078Z,23.30
2018-04-22T08:50:53.526Z,23.20
2018-04-22T08:53:21.010Z,23.30
2018-04-22T08:55:48.469Z,23.40
2018-04-22T08:58:15.919Z,23.50
2018-04-22T09:00:43.396Z,23.60
2018-04-22T09:03:10.834Z,23.80
2018-04-22T09:05:38.295Z,23.90
2018-04-22T09:08:05.781Z,24.10
2018-04-22T09:10:33.249Z,24.10
2018-04-22T09:13:00.812Z,24.20
2018-04-22T09:15:28.370Z,24.30
2018-04-22T09:17:55.823Z,24.50
2018-04-22T09:20:23.340Z,24.70
2018-04-22T09:22:50.745Z,24.70
2018-04-22T09:25:18.290Z,24.70
2018-04-22T09:27:45.778Z,24.90
2018-04-22T09:30:13.350Z,25.10
2018-04-22T09:32:40.790Z,25.10
2018-04-22T09:35:08.266Z,25.20
2018-04-22T09:37:35.725Z,25.30
2018-04-22T09:40:03.179Z,25.30
2018-04-22T09:42:30.653Z,25.40
2018-04-22T09:44:58.108Z,25.60
2018-04-22T09:47:25.554Z,25.80
2018-04-22T09:49:53.018Z,25.90
2018-04-22T09:52:20.504Z,26.00
2018-04-22T09:54:47.969Z,26.00
2018-04-22T09:57:15.415Z,26.30
2018-04-22T09:59:42.878Z,26.40
2018-04-22T10:02:16.283Z,26.50
2018-04-22T10:04:47.390Z,26.70
2018-04-22T10:07:15.615Z,27.00
2018-04-22T10:09:43.053Z,26.90
2018-04-22T10:12:10.519Z,27.10
2018-04-22T10:14:37.985Z,27.30
2018-04-22T10:17:05.469Z,27.30
2018-04-22T10:19:32.942Z,27.40
2018-04-22T10:22:00.408Z,27.40
2018-04-22T10:24:27.870Z,27.50
2018-04-22T10:26:55.344Z,27.50
2018-04-22T10:29:22.801Z,27.60
2018-04-22T10:31:50.250Z,27.60
2018-04-22T10:34:17.798Z,27.40
2018-04-22T10:36:45.256Z,27.30
2018-04-22T10:39:12.724Z,27.10
2018-04-22T10:41:40.369Z,26.90
2018-04-22T10:44:07.822Z,26.70
2018-04-22T10:46:35.278Z,26.60
2018-04-22T10:49:02.758Z,26.50
2018-04-22T10:51:30.218Z,26.40
2018-04-22T10:53:57.686Z,26.20
2018-04-22T10:56:25.142Z,26.10
2018-04-22T10:58:52.618Z,26.10
2018-04-22T11:01:20.082Z,26.10
2018-04-22T11:03:47.942Z,26.10
2018-04-22T11:06:15.417Z,26.00
2018-04-22T11:08:42.877Z,26.10
2018-04-22T11:11:10.349Z,26.30
2018-04-22T11:13:37.915Z,26.20
2018-04-22T11:16:05.362Z,26.20
2018-04-22T11:18:32.828Z,26.20
2018-04-22T11:21:00.288Z,26.20
2018-04-22T11:23:27.887Z,26.20
2018-04-22T11:25:55.333Z,26.10
2018-04-22T11:28:22.797Z,26.20
2018-04-22T11:30:50.258Z,26.40
2018-04-22T11:33:17.710Z,26.50
2018-04-22T11:35:45.187Z,26.70
2018-04-22T11:38:12.643Z,26.80
2018-04-22T11:40:40.123Z,26.90
2018-04-22T11:43:07.561Z,26.80
2018-04-22T11:45:35.009Z,26.60
2018-04-22T11:48:02.502Z,26.70
2018-04-22T11:50:29.953Z,26.70
2018-04-22T11:52:57.421Z,26.70
2018-04-22T11:55:24.857Z,26.70
2018-04-22T11:57:52.526Z,26.80
2018-04-22T12:00:19.976Z,26.80
2018-04-22T12:02:48.305Z,27.00
2018-04-22T12:05:15.757Z,26.90
2018-04-22T12:07:43.399Z,27.20
2018-04-22T12:10:10.856Z,27.30
2018-04-22T12:12:38.358Z,27.20
2018-04-22T12:15:05.905Z,27.20
2018-04-22T12:17:33.373Z,27.20
2018-04-22T12:20:00.837Z,27.20
2018-04-22T12:22:28.302Z,27.20
2018-04-22T12:24:55.770Z,27.10
2018-04-22T12:27:23.222Z,27.20
2018-04-22T12:29:50.675Z,27.40
2018-04-22T12:32:18.138Z,27.70
2018-04-22T12:34:45.710Z,27.90
2018-04-22T12:37:13.178Z,27.70
2018-04-22T12:39:40.633Z,27.40
2018-04-22T12:42:08.109Z,27.30
2018-04-22T12:44:35.572Z,27.20
2018-04-22T12:47:03.058Z,27.10
2018-04-22T12:49:30.668Z,27.30
2018-04-22T12:51:58.176Z,27.40
2018-04-22T12:54:25.725Z,27.40
2018-04-22T12:56:53.183Z,27.50
2018-04-22T12:59:20.809Z,27.70
2018-04-22T13:01:48.281Z,27.70
2018-04-22T13:04:15.763Z,27.70
2018-04-22T13:06:43.218Z,27.60
2018-04-22T13:09:10.767Z,27.40
2018-04-22T13:11:38.205Z,27.20
2018-04-22T13:14:06.556Z,27.10
2018-04-22T13:16:33.992Z,27.10
2018-04-22T13:19:01.482Z,27.10
2018-04-22T13:21:28.982Z,27.10
2018-04-22T13:23:56.475Z,27.20
2018-04-22T13:26:23.913Z,27.30
2018-04-22T13:28:52.130Z,27.00
2018-04-22T13:31:19.585Z,27.00
2018-04-22T13:33:47.076Z,27.00
2018-04-22T13:36:14.520Z,27.00
2018-04-22T13:38:41.997Z,27.10
2018-04-22T13:41:09.443Z,27.30
2018-04-22T13:43:37.113Z,27.40
2018-04-22T13:46:04.681Z,27.50
2018-04-22T13:48:32.159Z,27.50
2018-04-22T13:50:59.601Z,27.50
2018-04-22T13:53:27.068Z,27.40
2018-04-22T13:55:54.506Z,27.50
2018-04-22T13:58:22.092Z,27.70
2018-04-22T14:00:49.556Z,27.60
2018-04-22T14:03:17.018Z,27.50
2018-04-22T14:05:44.458Z,27.50
2018-04-22T14:08:11.926Z,27.40
2018-04-22T14:10:39.382Z,27.30
2018-04-22T14:13:06.845Z,27.10
2018-04-22T14:15:34.311Z,27.00
2018-04-22T14:18:01.774Z,26.80
2018-04-22T14:20:29.223Z,26.80
2018-04-22T14:22:56.698Z,26.70
2018-04-22T14:25:24.502Z,26.70
2018-04-22T14:27:51.953Z,26.60
2018-04-22T14:30:19.491Z,26.80
2018-04-22T14:32:46.985Z,26.90
2018-04-22T14:35:14.446Z,27.00
2018-04-22T14:37:41.918Z,27.00
2018-04-22T14:40:09.478Z,27.00
2018-04-22T14:42:37.211Z,27.00
2018-04-22T14:45:16.665Z,26.90
2018-04-22T14:47:44.411Z,26.90
2018-04-22T14:50:11.904Z,26.80
2018-04-22T14:52:39.361Z,26.80
2018-04-22T14:55:06.834Z,26.70
2018-04-22T14:57:34.290Z,26.60
2018-04-22T15:00:01.747Z,26.60
2018-04-22T15:02:29.221Z,26.70
2018-04-22T15:04:56.690Z,26.70
2018-04-22T15:07:24.146Z,26.70
2018-04-22T15:09:51.615Z,26.60
2018-04-22T15:12:19.083Z,26.50
2018-04-22T15:14:46.639Z,26.50
2018-04-22T15:17:14.203Z,26.40
2018-04-22T15:19:41.680Z,26.50
2018-04-22T15:22:09.118Z,26.40
2018-04-22T15:24:36.598Z,26.30
2018-04-22T15:27:04.050Z,26.30
2018-04-22T15:29:31.507Z,26.30
2018-04-22T15:31:59.155Z,26.30
2018-04-22T15:34:26.774Z,26.30
2018-04-22T15:36:54.248Z,26.20
2018-04-22T15:39:22.466Z,26.00
2018-04-22T15:41:50.006Z,25.90
2018-04-22T15:44:17.521Z,25.90
2018-04-22T15:46:44.973Z,25.90
2018-04-22T15:49:12.433Z,25.90
2018-04-22T15:51:39.888Z,25.80
2018-04-22T15:54:07.361Z,25.80
2018-04-22T15:56:34.819Z,25.80
2018-04-22T15:59:02.294Z,25.80
2018-04-22T16:01:29.853Z,25.90
2018-04-22T16:03:57.421Z,25.90
2018-04-22T16:06:24.889Z,25.90
2018-04-22T16:08:52.349Z,25.90
2018-04-22T16:11:19.788Z,25.90
2018-04-22T16:13:47.268Z,25.90
2018-04-22T16:16:14.714Z,25.90
2018-04-22T16:18:42.167Z,25.90
2018-04-22T16:21:09.686Z,25.80
2018-04-22T16:23:37.126Z,25.80
2018-04-22T16:26:04.563Z,25.80
2018-04-22T16:28:32.033Z,25.60
2018-04-22T16:30:59.506Z,25.60
2018-04-22T16:33:27.078Z,25.60
2018-04-22T16:35:54.518Z,25.60
2018-04-22T16:38:22.705Z,25.60
2018-04-22T16:40:50.174Z,25.60
2018-04-22T16:43:17.734Z,25.60
2018-04-22T16:45:45.197Z,25.60
2018-04-22T16:48:12.646Z,25.60
2018-04-22T16:50:40.111Z,25.50
2018-04-22T16:53:07.578Z,25.50
2018-04-22T16:55:35.288Z,25.50
2018-04-22T16:58:02.753Z,25.40
2018-04-22T17:00:30.191Z,25.40
2018-04-22T17:02:57.749Z,25.40
2018-04-22T17:05:25.315Z,25.30
2018-04-22T17:07:52.921Z,25.20
2018-04-22T17:10:21.161Z,25.20
2018-04-22T17:12:48.647Z,25.10
2018-04-22T17:15:16.095Z,25.10
2018-04-22T17:17:43.541Z,25.00
2018-04-22T17:20:11.005Z,24.90
2018-04-22T17:22:38.796Z,24.90
2018-04-22T17:25:06.248Z,24.90
2018-04-22T17:27:33.719Z,24.80
2018-04-22T17:30:01.555Z,24.80
2018-04-22T17:32:29.014Z,24.60
2018-04-22T17:34:56.962Z,24.60
2018-04-22T17:37:25.174Z,24.40
2018-04-22T17:39:52.657Z,24.40
2018-04-22T17:42:20.151Z,24.40
2018-04-22T17:44:48.434Z,24.20
2018-04-22T17:47:15.938Z,24.20
2018-04-22T17:49:43.389Z,24.10
2018-04-22T17:52:11.601Z,23.90
2018-04-22T17:54:39.085Z,23.90
2018-04-22T17:57:06.571Z,23.80
2018-04-22T17:59:34.061Z,23.80
2018-04-22T18:02:01.549Z,23.70
2018-04-22T18:04:29.029Z,23.60
2018-04-22T18:06:56.583Z,23.50
2018-04-22T18:09:24.054Z,23.40
2018-04-22T18:11:51.493Z,23.30
2018-04-22T18:14:18.967Z,23.20
2018-04-22T18:16:46.424Z,23.20
2018-04-22T18:19:14.160Z,23.10
2018-04-22T18:21:42.377Z,23.00
2018-04-22T18:24:09.838Z,22.90
2018-04-22T18:26:37.304Z,22.90
2018-04-22T18:29:04.770Z,22.80
2018-04-22T18:31:32.326Z,22.80
2018-04-22T18:33:59.790Z,22.70
2018-04-22T18:36:27.434Z,22.70
2018-04-22T18:38:54.865Z,22.60
2018-04-22T18:41:23.194Z,22.50
2018-04-22T18:43:50.762Z,22.40
2018-04-22T18:46:18.228Z,22.40
2018-04-22T18:48:45.698Z,22.40
2018-04-22T18:51:13.156Z,22.30
2018-04-22T18:53:40.616Z,22.30
2018-04-22T18:56:08.083Z,22.20
2018-04-22T18:58:35.550Z,22.10
2018-04-22T19:01:03.038Z,22.10
2018-04-22T19:03:30.569Z,22.10
2018-04-22T19:05:58.031Z,22.00
2018-04-22T19:08:25.474Z,22.00
2018-04-22T19:10:52.937Z,21.90
2018-04-22T19:13:20.378Z,21.80
2018-04-22T19:15:47.877Z,21.80
2018-04-22T19:18:15.420Z,21.80
2018-04-22T19:20:42.882Z,21.70
2018-04-22T19:23:10.338Z,21.60
2018-04-22T19:25:39.474Z,21.50
2018-04-22T19:28:06.925Z,21.50
2018-04-22T19:30:34.389Z,21.40
2018-04-22T19:33:01.986Z,21.30
2018-04-22T19:35:29.477Z,21.30
2018-04-22T19:37:56.995Z,21.30
2018-04-22T19:40:24.452Z,21.20
2018-04-22T19:42:51.981Z,21.10
2018-04-22T19:45:19.462Z,21.00
2018-04-22T19:47:46.953Z,20.90
2018-04-22T19:50:14.499Z,20.80
2018-04-22T19:52:42.125Z,20.70
2018-04-22T19:55:09.586Z,20.70
2018-04-22T19:57:37.808Z,20.60
2018-04-22T20:00:05.298Z,20.60
2018-04-22T20:02:32.779Z,20.60
2018-04-22T20:05:00.978Z,20.50
2018-04-22T20:07:28.442Z,20.40
2018-04-22T20:09:55.958Z,20.50
2018-04-22T20:12:23.418Z,20.50
2018-04-22T20:14:51.250Z,20.40
2018-04-22T20:17:18.816Z,20.30
2018-04-22T20:19:46.249Z,20.30
2018-04-22T20:22:13.765Z,20.20
2018-04-22T20:24:41.233Z,20.10
2018-04-22T20:27:08.715Z,20.10
2018-04-22T20:29:36.184Z,20.10
2018-04-22T20:32:03.727Z,20.00
2018-04-22T20:34:31.185Z,19.90
2018-04-22T20:36:58.746Z,19.90
2018-04-22T20:39:26.256Z,19.90
2018-04-22T20:41:54.477Z,19.80
2018-04-22T20:44:22.028Z,19.70
2018-04-22T20:46:49.449Z,19.70
2018-04-22T20:49:16.901Z,19.70
2018-04-22T20:51:44.444Z,19.70
2018-04-22T20:54:12.288Z,19.70
2018-04-22T20:56:39.730Z,19.60
2018-04-22T20:59:07.959Z,19.50
2018-04-22T21:01:35.417Z,19.50
2018-04-22T21:04:02.989Z,19.50
2018-04-22T21:06:30.450Z,19.50
2018-04-22T21:08:57.988Z,19.50
2018-04-22T21:11:25.422Z,19.50
2018-04-22T21:13:52.888Z,19.50
2018-04-22T21:16:20.362Z,19.40
2018-04-22T21:18:47.856Z,19.40
2018-04-22T21:21:15.330Z,19.40
2018-04-22T21:23:42.786Z,19.40
2018-04-22T21:26:10.246Z,19.40
2018-04-22T21:28:37.743Z,19.40
2018-04-22T21:31:05.281Z,19.40
2018-04-22T21:33:32.734Z,19.40
2018-04-22T21:36:00.177Z,19.30
2018-04-22T21:38:27.640Z,19.30
2018-04-22T21:40:55.078Z,19.30
2018-04-22T21:43:23.309Z,19.30
2018-04-22T21:45:51.458Z,19.30
2018-04-22T21:48:18.905Z,19.30
2018-04-22T21:50:46.375Z,19.30
2018-04-22T21:53:13.844Z,19.20
2018-04-22T21:55:41.497Z,19.20
2018-04-22T21:58:08.946Z,19.30
2018-04-22T22:00:36.387Z,19.20
2018-04-22T22:03:03.846Z,19.30
2018-04-22T22:05:31.386Z,19.20
2018-04-22T22:07:58.844Z,19.20
2018-04-22T22:10:26.302Z,19.20
2018-04-22T22:12:53.773Z,19.20
2018-04-22T22:15:21.249Z,19.20
2018-04-22T22:17:48.697Z,19.20
2018-04-22T22:20:16.158Z,19.20
2018-04-22T22:22:43.622Z,19.10
2018-04-22T22:25:11.112Z,19.10
2018-04-22T22:27:38.575Z,19.10
2018-04-22T22:30:06.049Z,19.10
2018-04-22T22:32:34.133Z,19.10
2018-04-22T22:35:02.373Z,19.10
2018-04-22T22:37:29.842Z,19.10
2018-04-22T22:39:57.393Z,19.10
2018-04-22T22:42:24.838Z,19.10
2018-04-22T22:44:52.323Z,19.10
2018-04-22T22:47:19.767Z,19.10
2018-04-22T22:49:47.241Z,19.10
2018-04-22T22:52:14.700Z,19.00
2018-04-22T22:54:42.169Z,19.00
2018-04-22T22:57:09.664Z,18.90
2018-04-22T22:59:37.106Z,18.90
2018-04-22T23:02:04.570Z,19.00
2018-04-22T23:04:32.006Z,18.90
2018-04-22T23:06:59.473Z,18.90
2018-04-22T23:09:26.919Z,18.90
2018-04-22T23:11:54.383Z,18.90
2018-04-22T23:14:22.154Z,18.90
2018-04-22T23:16:49.613Z,18.80
2018-04-22T23:19:17.064Z,18.90
2018-04-22T23:21:44.531Z,18.90
2018-04-22T23:24:11.976Z,18.80
2018-04-22T23:26:40.310Z,18.70
2018-04-22T23:29:07.759Z,18.70
2018-04-22T23:31:35.211Z,18.80
2018-04-22T23:34:02.669Z,18.70
2018-04-22T23:36:30.139Z,18.70
2018-04-22T23:38:57.631Z,18.80
2018-04-22T23:41:25.072Z,18.80
2018-04-22T23:43:52.523Z,18.80
2018-04-22T23:46:20.008Z,18.80
2018-04-22T23:48:47.574Z,18.70
2018-04-22T23:51:15.041Z,18.70
2018-04-22T23:53:42.482Z,18.70
2018-04-22T23:56:09.941Z,18.70
2018-04-22T23:58:37.434Z,18.70
